sensor_id;sensor_type;location;lat;lon;timestamp;P1;durP1;ratioP1;P2;durP2;ratioP2
64684;SDS011;51109;47.414;18.954;2023-04-01T00:00:55;3.08;;;2.25;;
64684;SDS011;51109;47.414;18.954;2023-04-01T00:03:24;2.38;;;2.05;;
64684;SDS011;51109;47.414;18.954;2023-04-01T00:05:53;2.25;;;1.85;;
64684;SDS011;51109;47.414;18.954;2023-04-01T00:08:21;3.25;;;1.90;;
64684;SDS011;51109;47.414;18.954;2023-04-01T00:10:47;7.13;;;1.90;;
64684;SDS011;51109;47.414;18.954;2023-04-01T00:13:13;3.45;;;2.10;;
64684;SDS011;51109;47.414;18.954;2023-04-01T00:15:39;3.63;;;2.25;;
64684;SDS011;51109;47.414;18.954;2023-04-01T00:18:06;2.38;;;1.90;;
64684;SDS011;51109;47.414;18.954;2023-04-01T00:20:32;3.00;;;2.20;;
64684;SDS011;51109;47.414;18.954;2023-04-01T00:22:58;2.47;;;1.85;;
64684;SDS011;51109;47.414;18.954;2023-04-01T00:25:24;2.00;;;1.65;;
64684;SDS011;51109;47.414;18.954;2023-04-01T00:27:50;5.78;;;2.45;;
64684;SDS011;51109;47.414;18.954;2023-04-01T00:30:16;3.55;;;2.17;;
64684;SDS011;51109;47.414;18.954;2023-04-01T00:32:42;2.08;;;1.88;;
64684;SDS011;51109;47.414;18.954;2023-04-01T00:35:08;3.55;;;2.13;;
64684;SDS011;51109;47.414;18.954;2023-04-01T00:37:36;2.80;;;1.30;;
64684;SDS011;51109;47.414;18.954;2023-04-01T00:40:03;4.10;;;2.40;;
64684;SDS011;51109;47.414;18.954;2023-04-01T00:42:30;4.07;;;2.10;;
64684;SDS011;51109;47.414;18.954;2023-04-01T00:44:56;2.30;;;1.83;;
64684;SDS011;51109;47.414;18.954;2023-04-01T00:47:22;2.22;;;1.90;;
64684;SDS011;51109;47.414;18.954;2023-04-01T00:49:52;3.35;;;2.33;;
64684;SDS011;51109;47.414;18.954;2023-04-01T00:52:23;2.03;;;1.92;;
64684;SDS011;51109;47.414;18.954;2023-04-01T00:54:53;3.08;;;2.35;;
64684;SDS011;51109;47.414;18.954;2023-04-01T00:57:34;3.17;;;2.40;;
64684;SDS011;51109;47.414;18.954;2023-04-01T01:00:03;2.80;;;1.73;;
64684;SDS011;51109;47.414;18.954;2023-04-01T01:02:32;4.63;;;2.30;;
64684;SDS011;51109;47.414;18.954;2023-04-01T01:04:59;4.05;;;2.13;;
64684;SDS011;51109;47.414;18.954;2023-04-01T01:12:50;3.03;;;2.35;;
64684;SDS011;51109;47.414;18.954;2023-04-01T01:15:31;8.27;;;3.47;;
64684;SDS011;51109;47.414;18.954;2023-04-01T01:34:29;8.43;;;3.10;;
64684;SDS011;51109;47.414;18.954;2023-04-01T01:37:03;4.20;;;2.67;;
64684;SDS011;51109;47.414;18.954;2023-04-01T01:39:35;3.38;;;2.03;;
64684;SDS011;51109;47.414;18.954;2023-04-01T01:42:03;3.80;;;2.60;;
64684;SDS011;51109;47.414;18.954;2023-04-01T01:44:31;3.80;;;2.53;;
64684;SDS011;51109;47.414;18.954;2023-04-01T01:46:58;3.83;;;2.58;;
64684;SDS011;51109;47.414;18.954;2023-04-01T01:49:26;3.42;;;2.60;;
64684;SDS011;51109;47.414;18.954;2023-04-01T01:51:55;3.17;;;2.47;;
64684;SDS011;51109;47.414;18.954;2023-04-01T01:54:22;3.97;;;2.22;;
64684;SDS011;51109;47.414;18.954;2023-04-01T01:56:49;4.07;;;2.72;;
64684;SDS011;51109;47.414;18.954;2023-04-01T01:59:20;2.28;;;1.98;;
64684;SDS011;51109;47.414;18.954;2023-04-01T02:01:50;4.97;;;2.75;;
64684;SDS011;51109;47.414;18.954;2023-04-01T02:04:18;4.10;;;2.28;;
64684;SDS011;51109;47.414;18.954;2023-04-01T02:06:47;3.03;;;2.30;;
64684;SDS011;51109;47.414;18.954;2023-04-01T02:09:32;5.35;;;2.20;;
64684;SDS011;51109;47.414;18.954;2023-04-01T02:12:00;3.75;;;2.33;;
64684;SDS011;51109;47.414;18.954;2023-04-01T02:14:31;1.90;;;1.73;;
64684;SDS011;51109;47.414;18.954;2023-04-01T02:17:09;3.33;;;1.75;;
64684;SDS011;51109;47.414;18.954;2023-04-01T02:22:21;7.88;;;1.70;;
64684;SDS011;51109;47.414;18.954;2023-04-01T02:24:52;1.98;;;1.73;;
64684;SDS011;51109;47.414;18.954;2023-04-01T02:27:22;1.63;;;1.52;;
64684;SDS011;51109;47.414;18.954;2023-04-01T02:29:50;3.50;;;1.45;;
64684;SDS011;51109;47.414;18.954;2023-04-01T02:32:17;2.72;;;1.63;;
64684;SDS011;51109;47.414;18.954;2023-04-01T02:34:45;1.70;;;1.50;;
64684;SDS011;51109;47.414;18.954;2023-04-01T02:37:12;1.70;;;1.33;;
64684;SDS011;51109;47.414;18.954;2023-04-01T02:39:39;1.80;;;1.30;;
64684;SDS011;51109;47.414;18.954;2023-04-01T02:42:07;4.70;;;1.58;;
64684;SDS011;51109;47.414;18.954;2023-04-01T02:44:33;1.83;;;1.27;;
64684;SDS011;51109;47.414;18.954;2023-04-01T02:46:59;2.72;;;1.35;;
64684;SDS011;51109;47.414;18.954;2023-04-01T02:49:25;2.33;;;1.55;;
64684;SDS011;51109;47.414;18.954;2023-04-01T02:51:51;1.50;;;1.02;;
64684;SDS011;51109;47.414;18.954;2023-04-01T02:54:17;0.98;;;0.95;;
64684;SDS011;51109;47.414;18.954;2023-04-01T02:56:43;1.17;;;1.08;;
64684;SDS011;51109;47.414;18.954;2023-04-01T02:59:10;1.48;;;1.00;;
64684;SDS011;51109;47.414;18.954;2023-04-01T03:04:05;1.98;;;1.58;;
64684;SDS011;51109;47.414;18.954;2023-04-01T03:06:31;3.75;;;2.75;;
64684;SDS011;51109;47.414;18.954;2023-04-01T03:08:57;2.75;;;1.27;;
64684;SDS011;51109;47.414;18.954;2023-04-01T03:11:23;2.85;;;1.20;;
64684;SDS011;51109;47.414;18.954;2023-04-01T03:13:49;1.23;;;1.13;;
64684;SDS011;51109;47.414;18.954;2023-04-01T03:16:15;1.50;;;1.40;;
64684;SDS011;51109;47.414;18.954;2023-04-01T03:18:41;6.25;;;1.27;;
64684;SDS011;51109;47.414;18.954;2023-04-01T03:23:40;2.33;;;1.42;;
64684;SDS011;51109;47.414;18.954;2023-04-01T03:26:06;2.72;;;1.10;;
64684;SDS011;51109;47.414;18.954;2023-04-01T03:28:33;1.25;;;1.15;;
64684;SDS011;51109;47.414;18.954;2023-04-01T03:30:59;1.30;;;0.95;;
64684;SDS011;51109;47.414;18.954;2023-04-01T03:33:24;2.90;;;1.35;;
64684;SDS011;51109;47.414;18.954;2023-04-01T03:35:50;1.67;;;1.30;;
64684;SDS011;51109;47.414;18.954;2023-04-01T03:38:17;3.13;;;1.65;;
64684;SDS011;51109;47.414;18.954;2023-04-01T03:40:44;3.17;;;2.05;;
64684;SDS011;51109;47.414;18.954;2023-04-01T03:43:10;2.78;;;1.92;;
64684;SDS011;51109;47.414;18.954;2023-04-01T03:45:46;4.07;;;1.90;;
64684;SDS011;51109;47.414;18.954;2023-04-01T03:48:14;3.95;;;1.70;;
64684;SDS011;51109;47.414;18.954;2023-04-01T03:50:40;1.88;;;1.40;;
64684;SDS011;51109;47.414;18.954;2023-04-01T03:53:06;3.20;;;1.08;;
64684;SDS011;51109;47.414;18.954;2023-04-01T03:55:32;3.00;;;1.50;;
64684;SDS011;51109;47.414;18.954;2023-04-01T03:57:59;2.75;;;1.38;;
64684;SDS011;51109;47.414;18.954;2023-04-01T04:00:27;1.30;;;0.95;;
64684;SDS011;51109;47.414;18.954;2023-04-01T04:02:54;2.35;;;1.88;;
64684;SDS011;51109;47.414;18.954;2023-04-01T04:05:23;2.67;;;1.45;;
64684;SDS011;51109;47.414;18.954;2023-04-01T04:07:50;1.70;;;1.60;;
64684;SDS011;51109;47.414;18.954;2023-04-01T04:10:16;1.75;;;1.65;;
64684;SDS011;51109;47.414;18.954;2023-04-01T04:12:42;2.45;;;1.77;;
64684;SDS011;51109;47.414;18.954;2023-04-01T04:15:09;2.42;;;1.40;;
64684;SDS011;51109;47.414;18.954;2023-04-01T04:17:35;2.70;;;1.75;;
64684;SDS011;51109;47.414;18.954;2023-04-01T04:20:01;3.25;;;2.30;;
64684;SDS011;51109;47.414;18.954;2023-04-01T04:22:27;5.03;;;2.40;;
64684;SDS011;51109;47.414;18.954;2023-04-01T04:24:53;4.05;;;1.58;;
64684;SDS011;51109;47.414;18.954;2023-04-01T04:27:19;1.98;;;1.63;;
64684;SDS011;51109;47.414;18.954;2023-04-01T04:29:45;1.73;;;1.60;;
64684;SDS011;51109;47.414;18.954;2023-04-01T04:32:11;1.63;;;1.42;;
64684;SDS011;51109;47.414;18.954;2023-04-01T04:34:37;2.95;;;1.08;;
64684;SDS011;51109;47.414;18.954;2023-04-01T04:37:03;1.48;;;1.15;;
64684;SDS011;51109;47.414;18.954;2023-04-01T04:39:29;4.38;;;1.15;;
64684;SDS011;51109;47.414;18.954;2023-04-01T04:41:58;2.72;;;1.50;;
64684;SDS011;51109;47.414;18.954;2023-04-01T04:44:27;1.48;;;1.35;;
64684;SDS011;51109;47.414;18.954;2023-04-01T04:46:54;1.50;;;1.00;;
64684;SDS011;51109;47.414;18.954;2023-04-01T04:49:33;2.78;;;1.10;;
64684;SDS011;51109;47.414;18.954;2023-04-01T04:52:01;2.08;;;1.10;;
64684;SDS011;51109;47.414;18.954;2023-04-01T04:54:30;2.78;;;0.90;;
64684;SDS011;51109;47.414;18.954;2023-04-01T04:56:58;1.55;;;1.00;;
64684;SDS011;51109;47.414;18.954;2023-04-01T04:59:24;2.58;;;1.38;;
64684;SDS011;51109;47.414;18.954;2023-04-01T05:01:51;1.75;;;1.23;;
64684;SDS011;51109;47.414;18.954;2023-04-01T05:07:06;1.52;;;1.02;;
64684;SDS011;51109;47.414;18.954;2023-04-01T05:09:32;1.65;;;1.10;;
64684;SDS011;51109;47.414;18.954;2023-04-01T05:11:59;1.20;;;1.10;;
64684;SDS011;51109;47.414;18.954;2023-04-01T05:14:25;1.98;;;0.95;;
64684;SDS011;51109;47.414;18.954;2023-04-01T05:16:51;2.80;;;1.77;;
64684;SDS011;51109;47.414;18.954;2023-04-01T05:19:17;3.65;;;1.63;;
64684;SDS011;51109;47.414;18.954;2023-04-01T05:21:43;2.75;;;1.30;;
64684;SDS011;51109;47.414;18.954;2023-04-01T05:24:09;1.55;;;1.33;;
64684;SDS011;51109;47.414;18.954;2023-04-01T05:26:35;3.58;;;1.40;;
64684;SDS011;51109;47.414;18.954;2023-04-01T05:29:08;3.03;;;1.50;;
64684;SDS011;51109;47.414;18.954;2023-04-01T05:31:43;3.15;;;1.70;;
64684;SDS011;51109;47.414;18.954;2023-04-01T05:34:18;1.50;;;0.88;;
64684;SDS011;51109;47.414;18.954;2023-04-01T05:36:47;0.77;;;0.75;;
64684;SDS011;51109;47.414;18.954;2023-04-01T05:39:16;0.60;;;0.60;;
64684;SDS011;51109;47.414;18.954;2023-04-01T05:41:43;3.70;;;0.85;;
64684;SDS011;51109;47.414;18.954;2023-04-01T05:44:13;0.98;;;0.80;;
64684;SDS011;51109;47.414;18.954;2023-04-01T05:46:54;1.98;;;1.00;;
64684;SDS011;51109;47.414;18.954;2023-04-01T05:49:29;1.42;;;1.02;;
64684;SDS011;51109;47.414;18.954;2023-04-01T05:52:05;2.20;;;0.90;;
64684;SDS011;51109;47.414;18.954;2023-04-01T05:54:36;1.00;;;0.90;;
64684;SDS011;51109;47.414;18.954;2023-04-01T05:57:18;1.10;;;0.80;;
64684;SDS011;51109;47.414;18.954;2023-04-01T05:59:54;0.75;;;0.70;;
64684;SDS011;51109;47.414;18.954;2023-04-01T06:02:23;0.80;;;0.80;;
64684;SDS011;51109;47.414;18.954;2023-04-01T06:04:54;0.75;;;0.60;;
64684;SDS011;51109;47.414;18.954;2023-04-01T06:07:44;0.77;;;0.77;;
64684;SDS011;51109;47.414;18.954;2023-04-01T06:10:19;0.70;;;0.65;;
64684;SDS011;51109;47.414;18.954;2023-04-01T06:15:25;1.42;;;1.17;;
64684;SDS011;51109;47.414;18.954;2023-04-01T06:34:42;2.67;;;0.93;;
64684;SDS011;51109;47.414;18.954;2023-04-01T06:55:43;2.13;;;0.65;;
64684;SDS011;51109;47.414;18.954;2023-04-01T06:57:51;5.30;;;0.88;;
64684;SDS011;51109;47.414;18.954;2023-04-01T07:00:28;0.50;;;0.50;;
64684;SDS011;51109;47.414;18.954;2023-04-01T07:05:36;1.55;;;0.75;;
64684;SDS011;51109;47.414;18.954;2023-04-01T07:08:03;0.98;;;0.77;;
64684;SDS011;51109;47.414;18.954;2023-04-01T07:10:36;1.10;;;1.00;;
64684;SDS011;51109;47.414;18.954;2023-04-01T07:13:06;0.80;;;0.80;;
64684;SDS011;51109;47.414;18.954;2023-04-01T07:15:41;0.70;;;0.70;;
64684;SDS011;51109;47.414;18.954;2023-04-01T07:18:15;1.13;;;0.95;;
64684;SDS011;51109;47.414;18.954;2023-04-01T07:20:45;1.75;;;0.50;;
64684;SDS011;51109;47.414;18.954;2023-04-01T07:23:24;0.85;;;0.80;;
64684;SDS011;51109;47.414;18.954;2023-04-01T07:26:13;0.98;;;0.80;;
64684;SDS011;51109;47.414;18.954;2023-04-01T07:28:48;0.63;;;0.63;;
64684;SDS011;51109;47.414;18.954;2023-04-01T07:33:57;1.67;;;0.80;;
64684;SDS011;51109;47.414;18.954;2023-04-01T07:36:47;2.85;;;1.13;;
64684;SDS011;51109;47.414;18.954;2023-04-01T07:40:21;0.75;;;0.75;;
64684;SDS011;51109;47.414;18.954;2023-04-01T07:45:23;0.95;;;0.75;;
64684;SDS011;51109;47.414;18.954;2023-04-01T07:48:00;3.92;;;0.82;;
64684;SDS011;51109;47.414;18.954;2023-04-01T07:53:37;3.45;;;0.88;;
64684;SDS011;51109;47.414;18.954;2023-04-01T08:10:02;1.08;;;0.70;;
64684;SDS011;51109;47.414;18.954;2023-04-01T08:12:47;0.60;;;0.50;;
64684;SDS011;51109;47.414;18.954;2023-04-01T08:15:35;0.40;;;0.40;;
64684;SDS011;51109;47.414;18.954;2023-04-01T08:21:25;0.57;;;0.57;;
64684;SDS011;51109;47.414;18.954;2023-04-01T08:24:05;2.00;;;0.50;;
64684;SDS011;51109;47.414;18.954;2023-04-01T08:26:53;2.35;;;0.75;;
64684;SDS011;51109;47.414;18.954;2023-04-01T08:29:23;1.77;;;1.33;;
64684;SDS011;51109;47.414;18.954;2023-04-01T08:32:22;0.68;;;0.60;;
64684;SDS011;51109;47.414;18.954;2023-04-01T08:35:07;2.97;;;1.10;;
64684;SDS011;51109;47.414;18.954;2023-04-01T08:37:39;2.90;;;1.27;;
64684;SDS011;51109;47.414;18.954;2023-04-01T08:43:07;0.60;;;0.60;;
64684;SDS011;51109;47.414;18.954;2023-04-01T08:51:18;2.80;;;0.50;;
64684;SDS011;51109;47.414;18.954;2023-04-01T08:59:27;1.42;;;1.13;;
64684;SDS011;51109;47.414;18.954;2023-04-01T09:02:18;0.52;;;0.52;;
64684;SDS011;51109;47.414;18.954;2023-04-01T09:27:44;3.75;;;1.33;;
64684;SDS011;51109;47.414;18.954;2023-04-01T09:35:55;8.25;;;2.25;;
64684;SDS011;51109;47.414;18.954;2023-04-01T09:44:33;0.57;;;0.50;;
64684;SDS011;51109;47.414;18.954;2023-04-01T09:49:55;1.35;;;1.25;;
64684;SDS011;51109;47.414;18.954;2023-04-01T10:54:44;1.60;;;0.63;;
64684;SDS011;51109;47.414;18.954;2023-04-01T11:16:51;0.85;;;0.75;;
64684;SDS011;51109;47.414;18.954;2023-04-01T11:30:25;0.40;;;0.40;;
64684;SDS011;51109;47.414;18.954;2023-04-01T11:33:14;0.40;;;0.40;;
64684;SDS011;51109;47.414;18.954;2023-04-01T11:39:10;3.13;;;0.60;;
64684;SDS011;51109;47.414;18.954;2023-04-01T11:42:01;1.95;;;1.02;;
64684;SDS011;51109;47.414;18.954;2023-04-01T11:44:55;2.20;;;0.80;;
64684;SDS011;51109;47.414;18.954;2023-04-01T11:50:20;0.68;;;0.60;;
64684;SDS011;51109;47.414;18.954;2023-04-01T11:53:23;1.75;;;0.60;;
64684;SDS011;51109;47.414;18.954;2023-04-01T12:04:50;0.88;;;0.70;;
64684;SDS011;51109;47.414;18.954;2023-04-01T12:07:55;1.45;;;0.50;;
64684;SDS011;51109;47.414;18.954;2023-04-01T12:10:28;0.50;;;0.50;;
64684;SDS011;51109;47.414;18.954;2023-04-01T12:12:59;0.82;;;0.40;;
64684;SDS011;51109;47.414;18.954;2023-04-01T12:20:57;2.25;;;0.55;;
64684;SDS011;51109;47.414;18.954;2023-04-01T12:26:43;3.72;;;0.63;;
64684;SDS011;51109;47.414;18.954;2023-04-01T12:32:17;0.95;;;0.45;;
64684;SDS011;51109;47.414;18.954;2023-04-01T12:37:34;3.38;;;1.00;;
64684;SDS011;51109;47.414;18.954;2023-04-01T12:48:18;4.95;;;1.50;;
64684;SDS011;51109;47.414;18.954;2023-04-01T12:59:26;0.50;;;0.50;;
64684;SDS011;51109;47.414;18.954;2023-04-01T13:05:15;1.15;;;0.68;;
64684;SDS011;51109;47.414;18.954;2023-04-01T13:22:20;1.27;;;0.80;;
64684;SDS011;51109;47.414;18.954;2023-04-01T13:28:23;1.95;;;0.50;;
64684;SDS011;51109;47.414;18.954;2023-04-01T13:31:25;0.52;;;0.52;;
64684;SDS011;51109;47.414;18.954;2023-04-01T13:44:41;0.80;;;0.73;;
64684;SDS011;51109;47.414;18.954;2023-04-01T14:38:44;0.93;;;0.82;;
64684;SDS011;51109;47.414;18.954;2023-04-01T14:52:11;1.27;;;1.17;;
64684;SDS011;51109;47.414;18.954;2023-04-01T14:54:48;1.98;;;0.90;;
64684;SDS011;51109;47.414;18.954;2023-04-01T14:57:22;0.70;;;0.70;;
64684;SDS011;51109;47.414;18.954;2023-04-01T15:02:51;4.05;;;1.52;;
64684;SDS011;51109;47.414;18.954;2023-04-01T15:05:49;1.40;;;0.90;;
64684;SDS011;51109;47.414;18.954;2023-04-01T15:14:43;1.33;;;0.80;;
64684;SDS011;51109;47.414;18.954;2023-04-01T15:17:22;1.17;;;0.80;;
64684;SDS011;51109;47.414;18.954;2023-04-01T15:20:10;9.23;;;0.90;;
64684;SDS011;51109;47.414;18.954;2023-04-01T15:22:58;1.45;;;1.10;;
64684;SDS011;51109;47.414;18.954;2023-04-01T15:28:34;7.85;;;3.53;;
64684;SDS011;51109;47.414;18.954;2023-04-01T15:31:29;3.42;;;1.90;;
64684;SDS011;51109;47.414;18.954;2023-04-01T15:47:32;1.77;;;0.75;;
64684;SDS011;51109;47.414;18.954;2023-04-01T15:53:08;3.55;;;0.52;;
64684;SDS011;51109;47.414;18.954;2023-04-01T15:58:35;0.40;;;0.40;;
64684;SDS011;51109;47.414;18.954;2023-04-01T16:23:30;0.47;;;0.47;;
64684;SDS011;51109;47.414;18.954;2023-04-01T16:26:03;0.68;;;0.30;;
64684;SDS011;51109;47.414;18.954;2023-04-01T16:31:35;0.40;;;0.40;;
64684;SDS011;51109;47.414;18.954;2023-04-01T16:37:03;2.15;;;0.50;;
64684;SDS011;51109;47.414;18.954;2023-04-01T16:39:36;1.20;;;1.10;;
64684;SDS011;51109;47.414;18.954;2023-04-01T16:42:26;0.70;;;0.70;;
64684;SDS011;51109;47.414;18.954;2023-04-01T16:47:45;2.00;;;1.27;;
64684;SDS011;51109;47.414;18.954;2023-04-01T16:50:23;5.55;;;1.27;;
64684;SDS011;51109;47.414;18.954;2023-04-01T17:03:45;1.88;;;0.57;;
64684;SDS011;51109;47.414;18.954;2023-04-01T17:09:12;0.60;;;0.52;;
64684;SDS011;51109;47.414;18.954;2023-04-01T17:14:45;0.50;;;0.40;;
64684;SDS011;51109;47.414;18.954;2023-04-01T17:17:56;0.88;;;0.47;;
64684;SDS011;51109;47.414;18.954;2023-04-01T17:41:40;2.30;;;1.45;;
64684;SDS011;51109;47.414;18.954;2023-04-01T17:55:21;2.35;;;1.55;;
64684;SDS011;51109;47.414;18.954;2023-04-01T18:00:50;1.25;;;1.00;;
64684;SDS011;51109;47.414;18.954;2023-04-01T18:03:59;4.13;;;2.00;;
64684;SDS011;51109;47.414;18.954;2023-04-01T18:06:36;2.75;;;1.77;;
64684;SDS011;51109;47.414;18.954;2023-04-01T18:17:20;4.38;;;1.83;;
64684;SDS011;51109;47.414;18.954;2023-04-01T18:20:06;4.93;;;2.70;;
64684;SDS011;51109;47.414;18.954;2023-04-01T18:26:26;4.40;;;2.25;;
64684;SDS011;51109;47.414;18.954;2023-04-01T18:28:56;6.15;;;2.65;;
64684;SDS011;51109;47.414;18.954;2023-04-01T18:31:38;5.88;;;2.75;;
64684;SDS011;51109;47.414;18.954;2023-04-01T18:34:15;7.40;;;2.70;;
64684;SDS011;51109;47.414;18.954;2023-04-01T18:36:58;7.05;;;2.38;;
64684;SDS011;51109;47.414;18.954;2023-04-01T18:39:38;6.82;;;2.20;;
64684;SDS011;51109;47.414;18.954;2023-04-01T18:44:46;4.05;;;2.20;;
64684;SDS011;51109;47.414;18.954;2023-04-01T18:53:15;3.05;;;1.63;;
64684;SDS011;51109;47.414;18.954;2023-04-01T18:55:40;2.50;;;1.17;;
64684;SDS011;51109;47.414;18.954;2023-04-01T19:01:12;2.30;;;1.00;;
64684;SDS011;51109;47.414;18.954;2023-04-01T19:04:00;3.00;;;1.60;;
64684;SDS011;51109;47.414;18.954;2023-04-01T19:06:41;2.40;;;1.48;;
64684;SDS011;51109;47.414;18.954;2023-04-01T19:12:02;4.20;;;1.60;;
64684;SDS011;51109;47.414;18.954;2023-04-01T19:14:53;4.47;;;1.75;;
64684;SDS011;51109;47.414;18.954;2023-04-01T19:17:46;3.13;;;1.30;;
64684;SDS011;51109;47.414;18.954;2023-04-01T19:26:09;2.78;;;1.35;;
64684;SDS011;51109;47.414;18.954;2023-04-01T19:34:34;3.33;;;1.35;;
64684;SDS011;51109;47.414;18.954;2023-04-01T19:46:32;2.65;;;1.42;;
64684;SDS011;51109;47.414;18.954;2023-04-01T19:51:41;1.95;;;1.20;;
64684;SDS011;51109;47.414;18.954;2023-04-01T19:54:27;1.80;;;1.20;;
64684;SDS011;51109;47.414;18.954;2023-04-01T19:57:10;1.75;;;1.00;;
64684;SDS011;51109;47.414;18.954;2023-04-01T20:00:31;2.33;;;1.27;;
64684;SDS011;51109;47.414;18.954;2023-04-01T20:02:39;1.67;;;1.52;;
64684;SDS011;51109;47.414;18.954;2023-04-01T20:07:54;2.35;;;1.25;;
64684;SDS011;51109;47.414;18.954;2023-04-01T20:10:34;1.83;;;1.30;;
64684;SDS011;51109;47.414;18.954;2023-04-01T20:15:45;2.28;;;1.63;;
64684;SDS011;51109;47.414;18.954;2023-04-01T20:18:33;3.10;;;1.77;;
64684;SDS011;51109;47.414;18.954;2023-04-01T20:26:39;2.13;;;1.30;;
64684;SDS011;51109;47.414;18.954;2023-04-01T20:32:06;2.08;;;1.98;;
64684;SDS011;51109;47.414;18.954;2023-04-01T20:34:55;3.22;;;1.52;;
64684;SDS011;51109;47.414;18.954;2023-04-01T20:37:35;2.25;;;1.60;;
64684;SDS011;51109;47.414;18.954;2023-04-01T20:45:54;5.65;;;2.00;;
64684;SDS011;51109;47.414;18.954;2023-04-01T20:51:22;0.90;;;0.90;;
64684;SDS011;51109;47.414;18.954;2023-04-01T20:59:42;1.20;;;1.05;;
64684;SDS011;51109;47.414;18.954;2023-04-01T21:02:26;4.00;;;1.55;;
64684;SDS011;51109;47.414;18.954;2023-04-01T21:05:24;2.33;;;1.67;;
64684;SDS011;51109;47.414;18.954;2023-04-01T21:40:55;3.80;;;2.05;;
64684;SDS011;51109;47.414;18.954;2023-04-01T22:05:41;3.40;;;2.13;;
64684;SDS011;51109;47.414;18.954;2023-04-01T22:13:49;2.13;;;1.85;;
64684;SDS011;51109;47.414;18.954;2023-04-01T22:19:12;3.22;;;1.77;;
64684;SDS011;51109;47.414;18.954;2023-04-01T22:37:57;1.42;;;1.17;;
64684;SDS011;51109;47.414;18.954;2023-04-01T22:51:45;1.33;;;1.00;;
64684;SDS011;51109;47.414;18.954;2023-04-01T22:54:30;1.42;;;0.90;;
64684;SDS011;51109;47.414;18.954;2023-04-01T22:57:08;3.75;;;1.17;;
64684;SDS011;51109;47.414;18.954;2023-04-01T23:00:04;1.20;;;0.85;;
64684;SDS011;51109;47.414;18.954;2023-04-01T23:02:38;1.27;;;0.95;;
64684;SDS011;51109;47.414;18.954;2023-04-01T23:05:09;1.07;;;0.63;;
64684;SDS011;51109;47.414;18.954;2023-04-01T23:13:18;0.82;;;0.82;;
64684;SDS011;51109;47.414;18.954;2023-04-01T23:15:48;0.95;;;0.63;;
64684;SDS011;51109;47.414;18.954;2023-04-01T23:18:25;1.10;;;0.77;;
64684;SDS011;51109;47.414;18.954;2023-04-01T23:29:04;0.73;;;0.70;;
64684;SDS011;51109;47.414;18.954;2023-04-01T23:31:41;1.17;;;0.80;;
64684;SDS011;51109;47.414;18.954;2023-04-01T23:36:39;0.60;;;0.60;;
64684;SDS011;51109;47.414;18.954;2023-04-01T23:39:29;0.98;;;0.75;;
64684;SDS011;51109;47.414;18.954;2023-04-01T23:42:06;0.75;;;0.70;;
64684;SDS011;51109;47.414;18.954;2023-04-01T23:44:37;0.60;;;0.60;;
64684;SDS011;51109;47.414;18.954;2023-04-01T23:47:04;0.40;;;0.40;;
64684;SDS011;51109;47.414;18.954;2023-04-01T23:49:41;0.80;;;0.80;;
64684;SDS011;51109;47.414;18.954;2023-04-01T23:52:24;0.82;;;0.82;;
64684;SDS011;51109;47.414;18.954;2023-04-01T23:54:56;0.63;;;0.63;;
64684;SDS011;51109;47.414;18.954;2023-04-01T23:57:28;0.73;;;0.60;;
